Allenton, Missouri
Current Conditions -  °F | °C
As of 4:35 AM on Thursday 18 Dec 2014 (Local Time) from KFYG Reporting Station
Light Snow Light Snow  
Wind Chill: 30°   Ceiling: 4100
Heat Index: 30°   Visibility: 1.7mi
Dew Point: 28°   Wind: 3mph
Humidity: 93%   Direction: 50°NE
Pressure: 30.26"   Gusts: NA
Location:  38.5°N, 90.68°W
Report Text: KFYG 181035Z AUTO 05003KT 1 3/4SM -SN SCT002 BKN041 M01/M02 A3026 RMK AO2 P0013
Loading
Personal Weather Stations






























Interactive Weather Map New forecast layout! Learn more

10-Day Weather Forecast

Advertisements
Track Severe Weather on mobile